sensor_id;sensor_type;location;lat;lon;timestamp;P1;durP1;ratioP1;P2;durP2;ratioP2
61356;SDS011;47227;46.752;23.576;2024-02-14T00:01:11;4.80;;;3.40;;
61356;SDS011;47227;46.752;23.576;2024-02-14T00:03:40;10.20;;;6.70;;
61356;SDS011;47227;46.752;23.576;2024-02-14T00:06:09;5.50;;;4.10;;
61356;SDS011;47227;46.752;23.576;2024-02-14T00:08:40;6.00;;;4.50;;
61356;SDS011;47227;46.752;23.576;2024-02-14T00:11:09;7.80;;;5.80;;
61356;SDS011;47227;46.752;23.576;2024-02-14T00:13:37;5.50;;;4.30;;
61356;SDS011;47227;46.752;23.576;2024-02-14T00:16:06;7.30;;;4.00;;
61356;SDS011;47227;46.752;23.576;2024-02-14T00:18:34;4.90;;;3.70;;
61356;SDS011;47227;46.752;23.576;2024-02-14T00:21:03;5.60;;;4.40;;
61356;SDS011;47227;46.752;23.576;2024-02-14T00:23:32;9.50;;;4.60;;
61356;SDS011;47227;46.752;23.576;2024-02-14T00:26:00;6.90;;;4.90;;
61356;SDS011;47227;46.752;23.576;2024-02-14T00:28:28;9.50;;;4.90;;
61356;SDS011;47227;46.752;23.576;2024-02-14T00:30:58;7.60;;;4.70;;
61356;SDS011;47227;46.752;23.576;2024-02-14T00:33:26;5.70;;;4.40;;
61356;SDS011;47227;46.752;23.576;2024-02-14T00:35:55;6.70;;;3.90;;
61356;SDS011;47227;46.752;23.576;2024-02-14T00:38:24;6.40;;;4.30;;
61356;SDS011;47227;46.752;23.576;2024-02-14T00:40:53;5.00;;;4.40;;
61356;SDS011;47227;46.752;23.576;2024-02-14T00:43:21;6.00;;;3.90;;
61356;SDS011;47227;46.752;23.576;2024-02-14T00:45:50;5.20;;;4.00;;
61356;SDS011;47227;46.752;23.576;2024-02-14T00:48:18;6.70;;;4.10;;
61356;SDS011;47227;46.752;23.576;2024-02-14T00:50:47;5.10;;;4.40;;
61356;SDS011;47227;46.752;23.576;2024-02-14T00:53:16;5.90;;;3.90;;
61356;SDS011;47227;46.752;23.576;2024-02-14T00:55:44;4.40;;;3.60;;
61356;SDS011;47227;46.752;23.576;2024-02-14T00:58:13;6.10;;;3.80;;
61356;SDS011;47227;46.752;23.576;2024-02-14T01:00:41;6.90;;;4.20;;
61356;SDS011;47227;46.752;23.576;2024-02-14T01:03:10;3.80;;;3.40;;
61356;SDS011;47227;46.752;23.576;2024-02-14T01:05:41;4.20;;;3.30;;
61356;SDS011;47227;46.752;23.576;2024-02-14T01:08:09;5.30;;;3.60;;
61356;SDS011;47227;46.752;23.576;2024-02-14T01:10:38;5.20;;;3.40;;
61356;SDS011;47227;46.752;23.576;2024-02-14T01:13:06;5.20;;;3.50;;
61356;SDS011;47227;46.752;23.576;2024-02-14T01:15:34;5.80;;;3.50;;
61356;SDS011;47227;46.752;23.576;2024-02-14T01:18:03;5.30;;;3.90;;
61356;SDS011;47227;46.752;23.576;2024-02-14T01:20:32;5.60;;;3.50;;
61356;SDS011;47227;46.752;23.576;2024-02-14T01:23:01;6.60;;;3.30;;
61356;SDS011;47227;46.752;23.576;2024-02-14T01:25:29;5.30;;;3.50;;
61356;SDS011;47227;46.752;23.576;2024-02-14T01:27:58;5.40;;;4.20;;
61356;SDS011;47227;46.752;23.576;2024-02-14T01:30:27;7.30;;;4.30;;
61356;SDS011;47227;46.752;23.576;2024-02-14T01:32:56;7.30;;;4.90;;
61356;SDS011;47227;46.752;23.576;2024-02-14T01:35:24;5.90;;;3.80;;
61356;SDS011;47227;46.752;23.576;2024-02-14T01:37:54;6.30;;;4.60;;
61356;SDS011;47227;46.752;23.576;2024-02-14T01:40:23;5.00;;;3.80;;
61356;SDS011;47227;46.752;23.576;2024-02-14T01:42:51;6.50;;;3.60;;
61356;SDS011;47227;46.752;23.576;2024-02-14T01:45:20;4.10;;;3.30;;
61356;SDS011;47227;46.752;23.576;2024-02-14T01:47:49;4.40;;;3.50;;
61356;SDS011;47227;46.752;23.576;2024-02-14T01:50:19;4.90;;;3.50;;
61356;SDS011;47227;46.752;23.576;2024-02-14T01:52:58;5.40;;;3.50;;
61356;SDS011;47227;46.752;23.576;2024-02-14T01:55:28;4.10;;;3.10;;
61356;SDS011;47227;46.752;23.576;2024-02-14T01:57:57;5.20;;;2.90;;
61356;SDS011;47227;46.752;23.576;2024-02-14T02:00:25;4.40;;;2.80;;
61356;SDS011;47227;46.752;23.576;2024-02-14T02:02:55;4.60;;;3.30;;
61356;SDS011;47227;46.752;23.576;2024-02-14T02:05:26;4.60;;;3.60;;
61356;SDS011;47227;46.752;23.576;2024-02-14T02:07:54;5.50;;;3.50;;
61356;SDS011;47227;46.752;23.576;2024-02-14T02:10:23;5.60;;;4.10;;
61356;SDS011;47227;46.752;23.576;2024-02-14T02:12:57;5.20;;;3.60;;
61356;SDS011;47227;46.752;23.576;2024-02-14T02:15:27;5.30;;;3.70;;
61356;SDS011;47227;46.752;23.576;2024-02-14T02:17:57;5.70;;;3.10;;
61356;SDS011;47227;46.752;23.576;2024-02-14T02:20:28;5.50;;;3.50;;
61356;SDS011;47227;46.752;23.576;2024-02-14T02:22:56;5.90;;;3.70;;
61356;SDS011;47227;46.752;23.576;2024-02-14T02:25:25;5.10;;;3.60;;
61356;SDS011;47227;46.752;23.576;2024-02-14T02:27:55;5.60;;;3.30;;
61356;SDS011;47227;46.752;23.576;2024-02-14T02:30:26;5.00;;;3.60;;
61356;SDS011;47227;46.752;23.576;2024-02-14T02:32:55;3.70;;;3.10;;
61356;SDS011;47227;46.752;23.576;2024-02-14T02:35:24;5.70;;;3.50;;
61356;SDS011;47227;46.752;23.576;2024-02-14T02:37:54;4.90;;;3.90;;
61356;SDS011;47227;46.752;23.576;2024-02-14T02:40:23;3.50;;;3.00;;
61356;SDS011;47227;46.752;23.576;2024-02-14T02:42:53;6.20;;;3.50;;
61356;SDS011;47227;46.752;23.576;2024-02-14T02:45:22;4.00;;;3.40;;
61356;SDS011;47227;46.752;23.576;2024-02-14T02:47:51;4.50;;;3.60;;
61356;SDS011;47227;46.752;23.576;2024-02-14T02:50:20;5.30;;;4.20;;
61356;SDS011;47227;46.752;23.576;2024-02-14T02:52:49;4.30;;;3.40;;
61356;SDS011;47227;46.752;23.576;2024-02-14T02:55:18;5.30;;;3.60;;
61356;SDS011;47227;46.752;23.576;2024-02-14T02:57:47;4.90;;;3.60;;
61356;SDS011;47227;46.752;23.576;2024-02-14T03:00:16;5.00;;;3.40;;
61356;SDS011;47227;46.752;23.576;2024-02-14T03:02:49;4.70;;;3.70;;
61356;SDS011;47227;46.752;23.576;2024-02-14T03:05:18;4.30;;;3.00;;
61356;SDS011;47227;46.752;23.576;2024-02-14T03:07:48;3.60;;;2.90;;
61356;SDS011;47227;46.752;23.576;2024-02-14T03:10:17;4.80;;;3.30;;
61356;SDS011;47227;46.752;23.576;2024-02-14T03:12:47;6.40;;;4.00;;
61356;SDS011;47227;46.752;23.576;2024-02-14T03:15:16;5.50;;;3.50;;
61356;SDS011;47227;46.752;23.576;2024-02-14T03:17:46;4.60;;;3.40;;
61356;SDS011;47227;46.752;23.576;2024-02-14T03:20:15;5.10;;;3.40;;
61356;SDS011;47227;46.752;23.576;2024-02-14T03:22:46;5.00;;;3.40;;
61356;SDS011;47227;46.752;23.576;2024-02-14T03:25:16;5.20;;;4.20;;
61356;SDS011;47227;46.752;23.576;2024-02-14T03:27:47;6.30;;;4.00;;
61356;SDS011;47227;46.752;23.576;2024-02-14T03:30:19;5.80;;;3.70;;
61356;SDS011;47227;46.752;23.576;2024-02-14T03:32:49;5.70;;;3.80;;
61356;SDS011;47227;46.752;23.576;2024-02-14T03:35:19;6.10;;;4.10;;
61356;SDS011;47227;46.752;23.576;2024-02-14T03:37:50;6.00;;;4.50;;
61356;SDS011;47227;46.752;23.576;2024-02-14T03:40:21;6.20;;;4.70;;
61356;SDS011;47227;46.752;23.576;2024-02-14T03:42:50;5.90;;;4.70;;
61356;SDS011;47227;46.752;23.576;2024-02-14T03:45:19;6.80;;;4.50;;
61356;SDS011;47227;46.752;23.576;2024-02-14T03:47:48;5.90;;;4.60;;
61356;SDS011;47227;46.752;23.576;2024-02-14T03:50:17;5.90;;;4.30;;
61356;SDS011;47227;46.752;23.576;2024-02-14T03:52:46;8.10;;;5.40;;
61356;SDS011;47227;46.752;23.576;2024-02-14T03:55:14;9.50;;;5.90;;
61356;SDS011;47227;46.752;23.576;2024-02-14T03:57:45;5.80;;;4.90;;
61356;SDS011;47227;46.752;23.576;2024-02-14T04:00:15;7.50;;;6.30;;
61356;SDS011;47227;46.752;23.576;2024-02-14T04:02:44;6.40;;;5.40;;
61356;SDS011;47227;46.752;23.576;2024-02-14T04:05:13;7.40;;;6.10;;
61356;SDS011;47227;46.752;23.576;2024-02-14T04:07:41;7.60;;;5.80;;
61356;SDS011;47227;46.752;23.576;2024-02-14T04:10:12;7.60;;;5.90;;
61356;SDS011;47227;46.752;23.576;2024-02-14T04:12:41;7.40;;;5.30;;
61356;SDS011;47227;46.752;23.576;2024-02-14T04:15:10;7.10;;;5.90;;
61356;SDS011;47227;46.752;23.576;2024-02-14T04:17:40;9.50;;;5.40;;
61356;SDS011;47227;46.752;23.576;2024-02-14T04:20:08;6.60;;;5.40;;
61356;SDS011;47227;46.752;23.576;2024-02-14T04:22:37;7.20;;;5.40;;
61356;SDS011;47227;46.752;23.576;2024-02-14T04:25:07;7.90;;;4.90;;
61356;SDS011;47227;46.752;23.576;2024-02-14T04:27:35;9.00;;;5.80;;
61356;SDS011;47227;46.752;23.576;2024-02-14T04:30:04;10.50;;;6.40;;
61356;SDS011;47227;46.752;23.576;2024-02-14T04:32:33;6.40;;;5.80;;
61356;SDS011;47227;46.752;23.576;2024-02-14T04:35:02;8.60;;;7.00;;
61356;SDS011;47227;46.752;23.576;2024-02-14T04:37:32;7.90;;;7.00;;
61356;SDS011;47227;46.752;23.576;2024-02-14T04:40:01;7.90;;;6.70;;
61356;SDS011;47227;46.752;23.576;2024-02-14T04:42:31;6.30;;;5.70;;
61356;SDS011;47227;46.752;23.576;2024-02-14T04:45:00;11.60;;;6.20;;
61356;SDS011;47227;46.752;23.576;2024-02-14T04:47:29;8.70;;;6.00;;
61356;SDS011;47227;46.752;23.576;2024-02-14T04:49:58;9.40;;;6.90;;
61356;SDS011;47227;46.752;23.576;2024-02-14T04:52:27;9.40;;;6.80;;
61356;SDS011;47227;46.752;23.576;2024-02-14T04:54:56;10.10;;;6.70;;
61356;SDS011;47227;46.752;23.576;2024-02-14T04:57:25;7.70;;;6.20;;
61356;SDS011;47227;46.752;23.576;2024-02-14T04:59:54;11.20;;;6.80;;
61356;SDS011;47227;46.752;23.576;2024-02-14T05:02:22;12.80;;;7.60;;
61356;SDS011;47227;46.752;23.576;2024-02-14T05:04:50;8.00;;;6.40;;
61356;SDS011;47227;46.752;23.576;2024-02-14T05:07:19;9.90;;;7.50;;
61356;SDS011;47227;46.752;23.576;2024-02-14T05:09:47;10.50;;;6.20;;
61356;SDS011;47227;46.752;23.576;2024-02-14T05:12:19;10.50;;;6.40;;
61356;SDS011;47227;46.752;23.576;2024-02-14T05:14:48;7.40;;;5.90;;
61356;SDS011;47227;46.752;23.576;2024-02-14T05:17:17;6.30;;;5.60;;
61356;SDS011;47227;46.752;23.576;2024-02-14T05:19:45;6.90;;;5.30;;
61356;SDS011;47227;46.752;23.576;2024-02-14T05:22:14;7.70;;;5.50;;
61356;SDS011;47227;46.752;23.576;2024-02-14T05:24:42;9.00;;;5.80;;
61356;SDS011;47227;46.752;23.576;2024-02-14T05:27:11;7.30;;;5.70;;
61356;SDS011;47227;46.752;23.576;2024-02-14T05:29:39;10.80;;;5.90;;
61356;SDS011;47227;46.752;23.576;2024-02-14T05:32:08;6.30;;;4.80;;
61356;SDS011;47227;46.752;23.576;2024-02-14T05:34:37;11.00;;;6.20;;
61356;SDS011;47227;46.752;23.576;2024-02-14T05:37:06;8.70;;;6.20;;
61356;SDS011;47227;46.752;23.576;2024-02-14T05:39:36;11.20;;;6.90;;
61356;SDS011;47227;46.752;23.576;2024-02-14T05:42:04;9.00;;;6.10;;
61356;SDS011;47227;46.752;23.576;2024-02-14T05:44:33;9.00;;;6.60;;
61356;SDS011;47227;46.752;23.576;2024-02-14T05:47:02;8.20;;;6.00;;
61356;SDS011;47227;46.752;23.576;2024-02-14T05:49:31;9.80;;;6.10;;
61356;SDS011;47227;46.752;23.576;2024-02-14T05:52:00;10.00;;;6.30;;
61356;SDS011;47227;46.752;23.576;2024-02-14T05:54:28;9.90;;;6.80;;
61356;SDS011;47227;46.752;23.576;2024-02-14T05:56:57;8.20;;;6.10;;
61356;SDS011;47227;46.752;23.576;2024-02-14T05:59:25;9.70;;;6.20;;
61356;SDS011;47227;46.752;23.576;2024-02-14T06:01:54;6.90;;;5.50;;
61356;SDS011;47227;46.752;23.576;2024-02-14T06:04:23;8.30;;;5.80;;
61356;SDS011;47227;46.752;23.576;2024-02-14T06:06:51;10.20;;;6.20;;
61356;SDS011;47227;46.752;23.576;2024-02-14T06:09:20;7.90;;;5.80;;
61356;SDS011;47227;46.752;23.576;2024-02-14T06:11:48;8.20;;;5.80;;
61356;SDS011;47227;46.752;23.576;2024-02-14T06:14:17;6.90;;;5.90;;
61356;SDS011;47227;46.752;23.576;2024-02-14T06:16:46;7.20;;;5.80;;
61356;SDS011;47227;46.752;23.576;2024-02-14T06:19:15;7.10;;;5.60;;
61356;SDS011;47227;46.752;23.576;2024-02-14T06:21:43;8.60;;;6.00;;
61356;SDS011;47227;46.752;23.576;2024-02-14T06:24:12;8.10;;;5.90;;
61356;SDS011;47227;46.752;23.576;2024-02-14T06:26:41;9.30;;;6.30;;
61356;SDS011;47227;46.752;23.576;2024-02-14T06:29:10;10.10;;;6.50;;
61356;SDS011;47227;46.752;23.576;2024-02-14T06:31:39;8.90;;;5.80;;
61356;SDS011;47227;46.752;23.576;2024-02-14T06:34:07;9.40;;;5.60;;
61356;SDS011;47227;46.752;23.576;2024-02-14T06:36:36;8.30;;;5.70;;
61356;SDS011;47227;46.752;23.576;2024-02-14T06:39:06;7.80;;;5.80;;
61356;SDS011;47227;46.752;23.576;2024-02-14T06:41:36;11.30;;;6.30;;
61356;SDS011;47227;46.752;23.576;2024-02-14T06:44:04;14.60;;;6.30;;
61356;SDS011;47227;46.752;23.576;2024-02-14T06:46:33;8.50;;;5.00;;
61356;SDS011;47227;46.752;23.576;2024-02-14T06:49:04;9.30;;;5.20;;
61356;SDS011;47227;46.752;23.576;2024-02-14T06:51:33;9.30;;;4.80;;
61356;SDS011;47227;46.752;23.576;2024-02-14T06:54:02;6.80;;;4.80;;
61356;SDS011;47227;46.752;23.576;2024-02-14T06:56:31;7.50;;;4.50;;
61356;SDS011;47227;46.752;23.576;2024-02-14T06:58:59;8.70;;;5.10;;
61356;SDS011;47227;46.752;23.576;2024-02-14T07:01:28;7.80;;;5.00;;
61356;SDS011;47227;46.752;23.576;2024-02-14T07:03:58;9.80;;;5.60;;
61356;SDS011;47227;46.752;23.576;2024-02-14T07:06:27;9.40;;;5.00;;
61356;SDS011;47227;46.752;23.576;2024-02-14T07:08:56;8.70;;;5.20;;
61356;SDS011;47227;46.752;23.576;2024-02-14T07:11:24;6.50;;;5.00;;
61356;SDS011;47227;46.752;23.576;2024-02-14T07:13:53;7.70;;;5.30;;
61356;SDS011;47227;46.752;23.576;2024-02-14T07:16:21;9.70;;;5.80;;
61356;SDS011;47227;46.752;23.576;2024-02-14T07:18:50;7.80;;;4.90;;
61356;SDS011;47227;46.752;23.576;2024-02-14T07:21:19;8.00;;;4.90;;
61356;SDS011;47227;46.752;23.576;2024-02-14T07:23:47;7.80;;;4.70;;
61356;SDS011;47227;46.752;23.576;2024-02-14T07:26:16;8.90;;;4.70;;
61356;SDS011;47227;46.752;23.576;2024-02-14T07:28:45;8.70;;;5.30;;
61356;SDS011;47227;46.752;23.576;2024-02-14T07:31:13;7.00;;;5.10;;
61356;SDS011;47227;46.752;23.576;2024-02-14T07:33:42;9.80;;;5.10;;
61356;SDS011;47227;46.752;23.576;2024-02-14T07:36:11;7.70;;;4.90;;
61356;SDS011;47227;46.752;23.576;2024-02-14T07:38:40;8.10;;;4.90;;
61356;SDS011;47227;46.752;23.576;2024-02-14T07:41:10;9.60;;;5.30;;
61356;SDS011;47227;46.752;23.576;2024-02-14T07:43:39;8.20;;;5.30;;
61356;SDS011;47227;46.752;23.576;2024-02-14T07:46:07;10.80;;;5.60;;
61356;SDS011;47227;46.752;23.576;2024-02-14T07:48:36;9.10;;;5.00;;
61356;SDS011;47227;46.752;23.576;2024-02-14T07:51:07;9.10;;;5.90;;
61356;SDS011;47227;46.752;23.576;2024-02-14T07:53:36;8.90;;;4.50;;
61356;SDS011;47227;46.752;23.576;2024-02-14T07:56:05;9.10;;;5.20;;
61356;SDS011;47227;46.752;23.576;2024-02-14T07:58:33;9.50;;;5.30;;
61356;SDS011;47227;46.752;23.576;2024-02-14T08:01:02;11.50;;;5.00;;
61356;SDS011;47227;46.752;23.576;2024-02-14T08:03:32;9.40;;;5.10;;
61356;SDS011;47227;46.752;23.576;2024-02-14T08:06:01;13.30;;;4.90;;
61356;SDS011;47227;46.752;23.576;2024-02-14T08:08:30;7.70;;;4.80;;
61356;SDS011;47227;46.752;23.576;2024-02-14T08:10:58;10.90;;;5.20;;
61356;SDS011;47227;46.752;23.576;2024-02-14T08:13:27;9.90;;;6.00;;
61356;SDS011;47227;46.752;23.576;2024-02-14T08:15:55;6.90;;;5.00;;
61356;SDS011;47227;46.752;23.576;2024-02-14T08:18:24;8.00;;;5.20;;
61356;SDS011;47227;46.752;23.576;2024-02-14T08:20:53;9.80;;;5.50;;
61356;SDS011;47227;46.752;23.576;2024-02-14T08:23:22;9.20;;;5.10;;
61356;SDS011;47227;46.752;23.576;2024-02-14T08:25:50;10.30;;;5.80;;
61356;SDS011;47227;46.752;23.576;2024-02-14T08:28:19;6.60;;;4.70;;
61356;SDS011;47227;46.752;23.576;2024-02-14T08:30:49;5.80;;;4.70;;
61356;SDS011;47227;46.752;23.576;2024-02-14T08:33:18;9.00;;;5.50;;
61356;SDS011;47227;46.752;23.576;2024-02-14T08:35:46;10.40;;;5.20;;
61356;SDS011;47227;46.752;23.576;2024-02-14T08:38:15;5.90;;;4.80;;
61356;SDS011;47227;46.752;23.576;2024-02-14T08:40:44;13.10;;;5.50;;
61356;SDS011;47227;46.752;23.576;2024-02-14T08:43:12;11.80;;;5.10;;
61356;SDS011;47227;46.752;23.576;2024-02-14T08:45:40;10.60;;;5.00;;
61356;SDS011;47227;46.752;23.576;2024-02-14T08:48:09;8.60;;;4.60;;
61356;SDS011;47227;46.752;23.576;2024-02-14T08:50:37;6.40;;;4.50;;
61356;SDS011;47227;46.752;23.576;2024-02-14T08:53:06;6.60;;;4.80;;
61356;SDS011;47227;46.752;23.576;2024-02-14T08:55:35;7.70;;;4.30;;
61356;SDS011;47227;46.752;23.576;2024-02-14T08:58:04;8.00;;;4.80;;
61356;SDS011;47227;46.752;23.576;2024-02-14T09:00:33;4.30;;;3.90;;
61356;SDS011;47227;46.752;23.576;2024-02-14T09:03:03;11.80;;;5.10;;
61356;SDS011;47227;46.752;23.576;2024-02-14T09:05:34;11.00;;;6.10;;
61356;SDS011;47227;46.752;23.576;2024-02-14T09:08:03;7.10;;;4.40;;
61356;SDS011;47227;46.752;23.576;2024-02-14T09:10:32;8.80;;;4.80;;
61356;SDS011;47227;46.752;23.576;2024-02-14T09:13:00;7.90;;;3.80;;
61356;SDS011;47227;46.752;23.576;2024-02-14T09:15:30;7.20;;;4.30;;
61356;SDS011;47227;46.752;23.576;2024-02-14T09:17:59;8.60;;;4.60;;
61356;SDS011;47227;46.752;23.576;2024-02-14T09:20:31;5.60;;;4.90;;
61356;SDS011;47227;46.752;23.576;2024-02-14T09:23:00;11.80;;;5.00;;
61356;SDS011;47227;46.752;23.576;2024-02-14T09:25:29;9.00;;;4.80;;
61356;SDS011;47227;46.752;23.576;2024-02-14T09:27:57;5.30;;;3.90;;
61356;SDS011;47227;46.752;23.576;2024-02-14T09:30:26;10.50;;;4.50;;
61356;SDS011;47227;46.752;23.576;2024-02-14T09:33:05;7.60;;;4.20;;
61356;SDS011;47227;46.752;23.576;2024-02-14T09:35:34;7.20;;;5.10;;
61356;SDS011;47227;46.752;23.576;2024-02-14T09:38:06;7.50;;;5.30;;
61356;SDS011;47227;46.752;23.576;2024-02-14T09:40:34;8.60;;;4.50;;
61356;SDS011;47227;46.752;23.576;2024-02-14T09:43:03;8.50;;;4.50;;
61356;SDS011;47227;46.752;23.576;2024-02-14T09:45:37;12.30;;;5.90;;
61356;SDS011;47227;46.752;23.576;2024-02-14T09:48:09;7.10;;;4.50;;
61356;SDS011;47227;46.752;23.576;2024-02-14T09:50:39;7.10;;;5.00;;
61356;SDS011;47227;46.752;23.576;2024-02-14T09:53:08;10.20;;;4.50;;
61356;SDS011;47227;46.752;23.576;2024-02-14T09:55:38;8.30;;;3.80;;
61356;SDS011;47227;46.752;23.576;2024-02-14T09:58:08;4.70;;;3.60;;
61356;SDS011;47227;46.752;23.576;2024-02-14T10:00:37;7.40;;;5.30;;
61356;SDS011;47227;46.752;23.576;2024-02-14T10:03:06;8.60;;;4.20;;
61356;SDS011;47227;46.752;23.576;2024-02-14T10:05:35;7.80;;;4.10;;
61356;SDS011;47227;46.752;23.576;2024-02-14T10:08:04;6.70;;;4.00;;
61356;SDS011;47227;46.752;23.576;2024-02-14T10:10:33;8.30;;;4.90;;
61356;SDS011;47227;46.752;23.576;2024-02-14T10:13:04;4.90;;;3.30;;
61356;SDS011;47227;46.752;23.576;2024-02-14T10:15:34;8.70;;;4.60;;
61356;SDS011;47227;46.752;23.576;2024-02-14T10:18:03;8.00;;;5.00;;
61356;SDS011;47227;46.752;23.576;2024-02-14T10:20:32;9.90;;;5.80;;
61356;SDS011;47227;46.752;23.576;2024-02-14T10:23:03;10.30;;;4.90;;
61356;SDS011;47227;46.752;23.576;2024-02-14T10:25:34;8.20;;;4.50;;
61356;SDS011;47227;46.752;23.576;2024-02-14T10:28:05;8.20;;;4.40;;
61356;SDS011;47227;46.752;23.576;2024-02-14T10:30:37;12.40;;;4.40;;
61356;SDS011;47227;46.752;23.576;2024-02-14T10:33:10;6.20;;;4.40;;
61356;SDS011;47227;46.752;23.576;2024-02-14T10:35:52;4.60;;;3.50;;
61356;SDS011;47227;46.752;23.576;2024-02-14T10:38:27;5.90;;;3.50;;
61356;SDS011;47227;46.752;23.576;2024-02-14T10:41:03;4.80;;;3.60;;
61356;SDS011;47227;46.752;23.576;2024-02-14T10:43:34;8.30;;;3.90;;
61356;SDS011;47227;46.752;23.576;2024-02-14T10:46:05;6.50;;;3.70;;
61356;SDS011;47227;46.752;23.576;2024-02-14T10:48:40;7.30;;;3.50;;
61356;SDS011;47227;46.752;23.576;2024-02-14T10:51:10;14.60;;;6.10;;
61356;SDS011;47227;46.752;23.576;2024-02-14T10:53:40;5.70;;;3.50;;
61356;SDS011;47227;46.752;23.576;2024-02-14T10:56:16;7.90;;;3.70;;
61356;SDS011;47227;46.752;23.576;2024-02-14T10:58:47;5.10;;;3.70;;
61356;SDS011;47227;46.752;23.576;2024-02-14T11:01:17;15.00;;;3.70;;
61356;SDS011;47227;46.752;23.576;2024-02-14T11:03:48;5.30;;;2.80;;
61356;SDS011;47227;46.752;23.576;2024-02-14T11:06:17;6.00;;;3.40;;
61356;SDS011;47227;46.752;23.576;2024-02-14T11:11:27;5.40;;;3.20;;
61356;SDS011;47227;46.752;23.576;2024-02-14T11:13:58;4.30;;;2.70;;
61356;SDS011;47227;46.752;23.576;2024-02-14T11:16:28;5.90;;;2.80;;
61356;SDS011;47227;46.752;23.576;2024-02-14T11:19:10;5.90;;;3.70;;
61356;SDS011;47227;46.752;23.576;2024-02-14T11:21:40;5.80;;;3.80;;
61356;SDS011;47227;46.752;23.576;2024-02-14T11:24:15;4.90;;;3.40;;
61356;SDS011;47227;46.752;23.576;2024-02-14T11:26:48;5.20;;;3.00;;
61356;SDS011;47227;46.752;23.576;2024-02-14T11:29:20;5.90;;;3.00;;
61356;SDS011;47227;46.752;23.576;2024-02-14T11:31:59;5.60;;;2.90;;
61356;SDS011;47227;46.752;23.576;2024-02-14T11:34:30;4.90;;;2.70;;
61356;SDS011;47227;46.752;23.576;2024-02-14T11:37:05;5.50;;;2.80;;
61356;SDS011;47227;46.752;23.576;2024-02-14T11:39:34;5.50;;;2.70;;
61356;SDS011;47227;46.752;23.576;2024-02-14T11:42:03;5.70;;;2.40;;
61356;SDS011;47227;46.752;23.576;2024-02-14T11:44:32;3.00;;;2.30;;
61356;SDS011;47227;46.752;23.576;2024-02-14T11:47:01;3.40;;;2.70;;
61356;SDS011;47227;46.752;23.576;2024-02-14T11:49:29;8.20;;;2.80;;
61356;SDS011;47227;46.752;23.576;2024-02-14T11:51:58;5.60;;;2.80;;
61356;SDS011;47227;46.752;23.576;2024-02-14T11:54:26;6.40;;;3.70;;
61356;SDS011;47227;46.752;23.576;2024-02-14T11:56:55;5.00;;;2.50;;
61356;SDS011;47227;46.752;23.576;2024-02-14T11:59:23;3.30;;;2.30;;
61356;SDS011;47227;46.752;23.576;2024-02-14T12:01:52;4.90;;;2.20;;
61356;SDS011;47227;46.752;23.576;2024-02-14T12:04:22;4.40;;;2.30;;
61356;SDS011;47227;46.752;23.576;2024-02-14T12:06:52;2.70;;;2.30;;
61356;SDS011;47227;46.752;23.576;2024-02-14T12:09:22;2.90;;;2.40;;
61356;SDS011;47227;46.752;23.576;2024-02-14T12:11:50;3.60;;;2.00;;
61356;SDS011;47227;46.752;23.576;2024-02-14T12:14:19;2.00;;;1.80;;
61356;SDS011;47227;46.752;23.576;2024-02-14T12:16:56;5.20;;;2.60;;
61356;SDS011;47227;46.752;23.576;2024-02-14T12:19:27;6.60;;;3.10;;
61356;SDS011;47227;46.752;23.576;2024-02-14T12:21:59;3.40;;;2.10;;
61356;SDS011;47227;46.752;23.576;2024-02-14T12:24:32;5.50;;;2.30;;
61356;SDS011;47227;46.752;23.576;2024-02-14T12:27:01;4.20;;;2.00;;
61356;SDS011;47227;46.752;23.576;2024-02-14T12:29:29;3.40;;;2.30;;
61356;SDS011;47227;46.752;23.576;2024-02-14T12:32:06;3.50;;;2.10;;
61356;SDS011;47227;46.752;23.576;2024-02-14T12:34:34;2.90;;;2.20;;
61356;SDS011;47227;46.752;23.576;2024-02-14T12:37:04;6.00;;;2.30;;
61356;SDS011;47227;46.752;23.576;2024-02-14T12:39:34;3.90;;;2.50;;
61356;SDS011;47227;46.752;23.576;2024-02-14T12:42:06;3.20;;;2.50;;
61356;SDS011;47227;46.752;23.576;2024-02-14T12:44:35;3.20;;;2.50;;
61356;SDS011;47227;46.752;23.576;2024-02-14T12:47:04;4.20;;;3.10;;
61356;SDS011;47227;46.752;23.576;2024-02-14T12:49:33;4.40;;;2.60;;
61356;SDS011;47227;46.752;23.576;2024-02-14T12:52:02;4.20;;;2.60;;
61356;SDS011;47227;46.752;23.576;2024-02-14T12:54:32;7.20;;;2.90;;
61356;SDS011;47227;46.752;23.576;2024-02-14T12:57:01;5.90;;;2.80;;
61356;SDS011;47227;46.752;23.576;2024-02-14T12:59:31;3.40;;;2.60;;
61356;SDS011;47227;46.752;23.576;2024-02-14T13:01:59;3.80;;;2.20;;
61356;SDS011;47227;46.752;23.576;2024-02-14T13:04:29;4.70;;;2.20;;
61356;SDS011;47227;46.752;23.576;2024-02-14T13:06:59;3.40;;;2.50;;
61356;SDS011;47227;46.752;23.576;2024-02-14T13:09:28;6.00;;;3.00;;
61356;SDS011;47227;46.752;23.576;2024-02-14T13:11:57;3.60;;;2.20;;
61356;SDS011;47227;46.752;23.576;2024-02-14T13:14:26;4.00;;;2.70;;
61356;SDS011;47227;46.752;23.576;2024-02-14T13:16:54;5.40;;;2.90;;
61356;SDS011;47227;46.752;23.576;2024-02-14T13:19:23;3.00;;;2.60;;
61356;SDS011;47227;46.752;23.576;2024-02-14T13:21:51;4.70;;;2.40;;
61356;SDS011;47227;46.752;23.576;2024-02-14T13:24:20;4.50;;;2.40;;
61356;SDS011;47227;46.752;23.576;2024-02-14T13:26:49;4.30;;;2.70;;
61356;SDS011;47227;46.752;23.576;2024-02-14T13:29:17;5.20;;;3.30;;
61356;SDS011;47227;46.752;23.576;2024-02-14T13:31:47;3.10;;;2.40;;
61356;SDS011;47227;46.752;23.576;2024-02-14T13:34:16;3.30;;;2.20;;
61356;SDS011;47227;46.752;23.576;2024-02-14T13:36:47;4.00;;;2.50;;
61356;SDS011;47227;46.752;23.576;2024-02-14T13:39:16;3.50;;;2.60;;
61356;SDS011;47227;46.752;23.576;2024-02-14T13:41:45;4.90;;;2.60;;
61356;SDS011;47227;46.752;23.576;2024-02-14T13:44:14;5.00;;;2.80;;
61356;SDS011;47227;46.752;23.576;2024-02-14T13:46:43;4.50;;;2.50;;
61356;SDS011;47227;46.752;23.576;2024-02-14T13:49:13;5.30;;;2.60;;
61356;SDS011;47227;46.752;23.576;2024-02-14T13:51:46;4.90;;;2.80;;
61356;SDS011;47227;46.752;23.576;2024-02-14T13:54:14;3.20;;;2.30;;
61356;SDS011;47227;46.752;23.576;2024-02-14T13:56:43;3.60;;;2.70;;
61356;SDS011;47227;46.752;23.576;2024-02-14T13:59:11;4.60;;;2.40;;
61356;SDS011;47227;46.752;23.576;2024-02-14T14:01:40;4.60;;;3.30;;
61356;SDS011;47227;46.752;23.576;2024-02-14T14:04:09;8.90;;;4.00;;
61356;SDS011;47227;46.752;23.576;2024-02-14T14:06:38;4.30;;;2.70;;
61356;SDS011;47227;46.752;23.576;2024-02-14T14:09:07;9.70;;;3.80;;
61356;SDS011;47227;46.752;23.576;2024-02-14T14:11:38;4.30;;;2.80;;
61356;SDS011;47227;46.752;23.576;2024-02-14T14:14:07;3.80;;;2.50;;
61356;SDS011;47227;46.752;23.576;2024-02-14T14:16:36;6.60;;;2.90;;
61356;SDS011;47227;46.752;23.576;2024-02-14T14:19:05;6.90;;;3.20;;
61356;SDS011;47227;46.752;23.576;2024-02-14T14:21:34;8.30;;;3.60;;
61356;SDS011;47227;46.752;23.576;2024-02-14T14:24:05;4.30;;;2.60;;
61356;SDS011;47227;46.752;23.576;2024-02-14T14:26:33;4.60;;;2.60;;
61356;SDS011;47227;46.752;23.576;2024-02-14T14:29:03;5.30;;;3.30;;
61356;SDS011;47227;46.752;23.576;2024-02-14T14:31:32;3.10;;;2.30;;
61356;SDS011;47227;46.752;23.576;2024-02-14T14:34:03;2.80;;;2.10;;
61356;SDS011;47227;46.752;23.576;2024-02-14T14:36:33;3.50;;;2.80;;
61356;SDS011;47227;46.752;23.576;2024-02-14T14:39:02;5.60;;;2.90;;
61356;SDS011;47227;46.752;23.576;2024-02-14T14:41:30;5.00;;;2.70;;
61356;SDS011;47227;46.752;23.576;2024-02-14T14:43:59;4.30;;;3.10;;
61356;SDS011;47227;46.752;23.576;2024-02-14T14:46:27;4.00;;;2.80;;
61356;SDS011;47227;46.752;23.576;2024-02-14T14:48:58;4.40;;;3.10;;